Time;durP1;ratioP1;P1;durP2;ratioP2;P2;SDS_P1;SDS_P2;PMS_P1;PMS_P2;Temp;Humidity;BMP_temperature;BMP_pressure;BME280_temperature;BME280_humidity;BME280_pressure;Samples;Min_cycle;Max_cycle;Signal;HPM_P1;HPM_P2
2022/11/25 00:01:48;;;;;;;9.27;4.43;;;4.60;87.60;;;;;;5045333;28;20103;-64
2022/11/25 00:04:19;;;;;;;8.27;4.45;;;4.50;87.70;;;;;;5048775;28;20044;-64
2022/11/25 00:06:46;;;;;;;8.75;4.53;;;4.50;87.60;;;;;;5049270;28;20134;-64
2022/11/25 00:09:16;;;;;;;9.63;5.65;;;4.50;87.50;;;;;;5051582;28;20043;-64
2022/11/25 00:11:52;;;;;;;8.77;4.05;;;4.50;87.50;;;;;;5046641;28;20487;-65
2022/11/25 00:14:21;;;;;;;8.98;4.13;;;4.50;87.40;;;;;;5047858;28;20151;-64
2022/11/25 00:16:50;;;;;;;9.80;4.47;;;4.50;87.40;;;;;;5042353;28;20072;-70
2022/11/25 00:19:19;;;;;;;8.65;4.47;;;4.50;87.20;;;;;;5029889;28;20410;-71
2022/11/25 00:21:55;;;;;;;8.25;4.57;;;4.40;87.20;;;;;;5047899;28;20043;-60
2022/11/25 00:24:34;;;;;;;8.90;5.18;;;4.40;87.20;;;;;;5047535;28;20049;-60
2022/11/25 00:27:04;;;;;;;11.23;4.93;;;4.40;87.20;;;;;;5047136;28;20033;-60
2022/11/25 00:29:37;;;;;;;8.75;4.63;;;4.40;87.00;;;;;;5040379;28;20050;-60
2022/11/25 00:32:12;;;;;;;9.52;4.43;;;4.30;87.00;;;;;;5047006;28;20466;-64
2022/11/25 00:34:39;;;;;;;9.75;4.93;;;4.30;87.00;;;;;;5045902;28;20057;-64
2022/11/25 00:37:11;;;;;;;10.95;4.45;;;4.30;86.90;;;;;;5028637;28;20554;-68
2022/11/25 00:39:42;;;;;;;8.55;4.40;;;4.20;87.00;;;;;;5042330;28;20154;-67
2022/11/25 00:45:01;;;;;;;9.05;4.22;;;4.20;87.20;;;;;;5032499;28;20454;-68
2022/11/25 00:47:34;;;;;;;8.52;4.13;;;4.20;87.10;;;;;;5051277;28;20886;-67
2022/11/25 00:50:01;;;;;;;8.82;4.70;;;4.20;87.20;;;;;;5051794;28;20041;-68
2022/11/25 00:52:29;;;;;;;9.35;4.57;;;4.20;87.20;;;;;;5051856;28;20053;-68
2022/11/25 00:54:58;;;;;;;8.25;4.20;;;4.20;87.50;;;;;;5047983;28;20084;-69
2022/11/25 00:57:33;;;;;;;8.48;4.28;;;4.20;87.80;;;;;;5053593;28;20506;-68
2022/11/25 01:00:00;;;;;;;9.10;4.40;;;4.20;87.90;;;;;;5035475;28;20049;-69
2022/11/25 01:02:27;;;;;;;9.18;4.65;;;4.20;87.80;;;;;;5047220;28;20053;-61
2022/11/25 01:04:59;;;;;;;9.07;4.35;;;4.20;87.70;;;;;;5033830;28;20514;-61
2022/11/25 01:07:28;;;;;;;8.43;4.32;;;4.20;87.60;;;;;;5048596;28;20057;-58
2022/11/25 01:09:59;;;;;;;8.40;4.45;;;4.20;87.60;;;;;;5049918;28;20049;-59
2022/11/25 01:12:26;;;;;;;8.00;4.03;;;4.20;87.50;;;;;;5049672;28;20106;-58
2022/11/25 01:14:53;;;;;;;8.88;4.35;;;4.20;87.40;;;;;;5029885;28;20044;-59
2022/11/25 01:17:22;;;;;;;8.80;4.22;;;4.20;87.30;;;;;;5048593;28;20048;-64
2022/11/25 01:19:49;;;;;;;11.10;4.40;;;4.20;87.30;;;;;;5049370;28;20072;-65
2022/11/25 01:22:18;;;;;;;9.50;4.55;;;4.10;87.40;;;;;;5050611;28;20119;-64
2022/11/25 01:24:45;;;;;;;11.07;4.85;;;4.10;87.50;;;;;;5048435;28;20492;-63
2022/11/25 01:27:17;;;;;;;9.52;4.47;;;4.10;87.50;;;;;;5032841;28;20081;-64
2022/11/25 01:29:47;;;;;;;8.57;4.13;;;4.10;87.40;;;;;;5050925;28;20040;-65
2022/11/25 01:32:23;;;;;;;11.93;4.90;;;4.00;87.40;;;;;;5050833;28;20511;-64
2022/11/25 01:34:54;;;;;;;10.40;4.50;;;4.10;87.40;;;;;;5032695;28;20045;-64
2022/11/25 01:37:23;;;;;;;9.13;4.57;;;4.10;87.30;;;;;;5051206;28;20041;-61
2022/11/25 01:39:54;;;;;;;11.88;5.28;;;4.00;87.20;;;;;;5049132;28;20053;-61
2022/11/25 01:42:30;;;;;;;10.70;4.63;;;4.00;87.30;;;;;;5047210;28;20488;-62
2022/11/25 01:45:41;;;;;;;11.75;5.15;;;4.00;87.30;;;;;;5050558;28;20450;-62
2022/11/25 01:48:16;;;;;;;9.80;5.00;;;3.90;87.30;;;;;;5031940;28;20399;-61
2022/11/25 01:50:45;;;;;;;10.43;4.80;;;3.90;87.30;;;;;;5043826;28;20029;-69
2022/11/25 01:53:18;;;;;;;8.50;4.57;;;3.90;87.40;;;;;;5049057;28;20045;-68
2022/11/25 01:55:58;;;;;;;9.98;4.82;;;3.90;87.20;;;;;;5050106;28;20055;-70
2022/11/25 01:58:34;;;;;;;8.73;4.10;;;3.90;87.20;;;;;;5049570;28;20045;-69
2022/11/25 02:01:02;;;;;;;10.65;4.80;;;3.90;87.30;;;;;;5039267;28;20051;-70
2022/11/25 02:03:38;;;;;;;10.73;5.30;;;4.00;87.20;;;;;;5048909;28;20056;-69
2022/11/25 02:06:13;;;;;;;8.95;4.32;;;3.90;87.20;;;;;;5030398;28;20040;-64
2022/11/25 02:08:53;;;;;;;9.18;4.50;;;3.90;87.10;;;;;;5047649;28;20059;-65
2022/11/25 02:11:27;;;;;;;12.03;4.43;;;3.90;87.10;;;;;;5027067;28;20040;-60
2022/11/25 02:13:57;;;;;;;8.25;3.70;;;3.90;87.10;;;;;;5047986;28;20540;-61
2022/11/25 02:16:29;;;;;;;7.30;3.45;;;3.90;87.10;;;;;;5026803;28;20037;-68
2022/11/25 02:18:59;;;;;;;7.23;3.90;;;3.80;87.10;;;;;;5047577;28;20450;-68
2022/11/25 02:21:33;;;;;;;9.52;4.55;;;3.80;87.20;;;;;;5028204;28;20077;-58
2022/11/25 02:24:12;;;;;;;11.85;3.90;;;3.80;87.20;;;;;;5029195;28;20068;-58
2022/11/25 02:26:46;;;;;;;8.48;3.47;;;3.70;87.30;;;;;;5047194;28;20545;-63
2022/11/25 02:29:18;;;;;;;8.50;4.03;;;3.80;87.30;;;;;;5047605;28;20049;-63
2022/11/25 02:31:48;;;;;;;9.20;4.20;;;3.80;87.60;;;;;;5027229;28;20064;-59
2022/11/25 02:34:15;;;;;;;7.75;3.65;;;3.80;87.80;;;;;;5026718;28;20045;-58
2022/11/25 02:36:45;;;;;;;10.45;4.13;;;3.80;87.90;;;;;;5048337;28;20136;-58
2022/11/25 02:39:13;;;;;;;7.57;3.70;;;3.70;87.90;;;;;;5048475;28;20065;-59
2022/11/25 02:41:46;;;;;;;8.02;3.47;;;3.80;88.00;;;;;;5047530;28;20056;-58
2022/11/25 02:44:15;;;;;;;7.68;3.75;;;3.70;88.00;;;;;;5043784;28;20072;-59
2022/11/25 02:46:42;;;;;;;8.85;3.67;;;3.70;87.80;;;;;;5047624;28;20056;-59
2022/11/25 02:49:15;;;;;;;8.05;3.28;;;3.70;87.80;;;;;;5049907;28;20037;-58
2022/11/25 02:51:45;;;;;;;10.07;4.00;;;3.70;87.70;;;;;;5031384;28;20143;-60
2022/11/25 02:54:14;;;;;;;7.72;3.95;;;3.70;87.50;;;;;;5029523;28;20048;-60
2022/11/25 02:56:45;;;;;;;9.20;3.95;;;3.60;87.40;;;;;;5046655;28;20484;-61
2022/11/25 02:59:13;;;;;;;7.07;3.88;;;3.60;87.60;;;;;;5030353;28;20115;-61
2022/11/25 03:01:40;;;;;;;8.80;4.10;;;3.50;87.80;;;;;;5026966;28;20053;-62
2022/11/25 03:04:09;;;;;;;7.97;3.72;;;3.60;87.80;;;;;;5041611;28;20055;-62
2022/11/25 03:06:36;;;;;;;9.02;4.10;;;3.70;87.80;;;;;;5027277;28;20088;-61
2022/11/25 03:09:04;;;;;;;9.65;4.18;;;3.70;87.70;;;;;;5028126;28;20195;-63
2022/11/25 03:14:28;;;;;;;8.65;3.95;;;3.70;88.10;;;;;;5017395;28;20086;-61
2022/11/25 03:16:55;;;;;;;7.70;3.63;;;3.60;88.60;;;;;;5031497;28;20060;-68
2022/11/25 03:19:25;;;;;;;8.90;4.20;;;3.60;88.70;;;;;;5031767;28;20156;-61
2022/11/25 03:21:52;;;;;;;8.77;4.10;;;3.60;88.70;;;;;;5050865;28;20047;-61
2022/11/25 03:24:24;;;;;;;8.05;3.72;;;3.60;88.60;;;;;;5047830;28;20396;-61
2022/11/25 03:26:54;;;;;;;8.50;3.78;;;3.70;88.50;;;;;;5031118;28;20565;-61
2022/11/25 03:29:25;;;;;;;10.77;4.55;;;3.70;88.30;;;;;;5028777;28;20040;-62
2022/11/25 03:31:54;;;;;;;8.13;3.28;;;3.70;88.10;;;;;;5044471;28;20045;-62
2022/11/25 03:34:21;;;;;;;8.65;3.78;;;3.60;88.30;;;;;;5050119;28;20044;-61
2022/11/25 03:36:58;;;;;;;7.18;3.55;;;3.60;88.30;;;;;;5045894;28;20131;-61
2022/11/25 03:39:31;;;;;;;6.50;3.00;;;3.60;88.20;;;;;;5028605;28;20053;-62
2022/11/25 03:42:00;;;;;;;7.93;3.40;;;3.60;88.20;;;;;;5028277;28;20076;-62
2022/11/25 03:44:29;;;;;;;6.95;3.35;;;3.60;88.30;;;;;;5029328;28;20072;-61
2022/11/25 03:46:56;;;;;;;6.47;2.58;;;3.60;88.30;;;;;;5045638;28;20114;-62
2022/11/25 03:49:28;;;;;;;7.38;2.63;;;3.60;88.30;;;;;;5029881;28;20115;-62
2022/11/25 03:51:56;;;;;;;5.15;2.83;;;3.60;88.50;;;;;;5027537;28;20179;-62
2022/11/25 03:54:28;;;;;;;5.22;2.88;;;3.70;88.40;;;;;;5028142;28;20041;-62
2022/11/25 03:57:16;;;;;;;8.07;3.13;;;3.70;88.30;;;;;;5029198;28;20479;-62
2022/11/25 03:59:45;;;;;;;5.38;2.45;;;3.70;88.40;;;;;;5027214;28;20491;-60
2022/11/25 04:02:14;;;;;;;5.93;2.70;;;3.70;88.50;;;;;;5043846;28;20484;-61
2022/11/25 04:04:41;;;;;;;7.57;2.85;;;3.80;88.30;;;;;;5040065;28;20127;-62
2022/11/25 04:07:09;;;;;;;9.48;3.22;;;3.70;88.40;;;;;;5026732;28;20048;-62
2022/11/25 04:09:50;;;;;;;7.47;2.78;;;3.70;88.50;;;;;;5042380;28;20052;-62
2022/11/25 04:15:13;;;;;;;5.53;2.70;;;3.70;88.60;;;;;;5025901;28;20488;-62
2022/11/25 04:17:43;;;;;;;8.52;3.20;;;3.70;88.50;;;;;;5029965;28;20045;-62
2022/11/25 04:20:12;;;;;;;5.25;2.65;;;3.80;88.40;;;;;;5033446;28;20110;-61
2022/11/25 04:22:46;;;;;;;5.80;2.58;;;3.80;88.30;;;;;;5031449;28;20049;-62
2022/11/25 04:25:18;;;;;;;6.15;2.78;;;3.70;88.40;;;;;;5028495;28;20045;-61
2022/11/25 04:27:49;;;;;;;5.28;2.72;;;3.80;88.50;;;;;;5046198;28;20049;-63
2022/11/25 04:30:23;;;;;;;6.95;2.72;;;3.70;88.70;;;;;;5043894;28;20571;-63
2022/11/25 04:32:55;;;;;;;5.20;2.53;;;3.70;88.90;;;;;;5051316;28;20526;-62
2022/11/25 04:35:24;;;;;;;4.18;2.03;;;3.80;88.80;;;;;;5034382;28;20068;-62
2022/11/25 04:37:57;;;;;;;8.02;3.28;;;3.80;89.00;;;;;;5049480;28;20153;-62
2022/11/25 04:40:27;;;;;;;8.70;2.78;;;3.80;89.10;;;;;;5034093;28;20049;-68
2022/11/25 04:43:12;;;;;;;5.30;2.53;;;3.90;89.40;;;;;;5051982;28;20045;-68
2022/11/25 04:45:50;;;;;;;6.35;2.78;;;3.90;89.40;;;;;;5050067;28;20123;-68
2022/11/25 04:48:18;;;;;;;5.53;2.67;;;4.00;89.00;;;;;;5032212;28;20144;-68
2022/11/25 04:50:45;;;;;;;5.47;2.30;;;4.00;89.30;;;;;;5033558;28;20124;-68
2022/11/25 04:53:15;;;;;;;5.70;2.30;;;4.00;89.50;;;;;;5032659;28;20045;-68
2022/11/25 04:55:45;;;;;;;5.72;2.72;;;4.00;89.60;;;;;;5028514;28;20106;-68
2022/11/25 04:59:38;;;;;;;6.30;2.25;;;4.00;89.60;;;;;;5050062;28;20045;-68
2022/11/25 05:01:05;;;;;;;5.32;2.30;;;4.00;89.70;;;;;;5033074;28;20067;-65
2022/11/25 05:03:36;;;;;;;7.63;2.53;;;4.00;89.60;;;;;;5050614;28;20499;-64
2022/11/25 05:06:06;;;;;;;5.78;2.78;;;4.10;89.70;;;;;;5048750;28;20075;-64
2022/11/25 05:08:36;;;;;;;6.80;2.75;;;4.10;89.60;;;;;;5051506;28;20131;-65
2022/11/25 05:11:06;;;;;;;6.32;2.90;;;4.10;89.60;;;;;;5047512;28;20558;-65
2022/11/25 05:13:35;;;;;;;4.28;1.85;;;4.10;89.90;;;;;;5049107;28;20045;-65
2022/11/25 05:16:05;;;;;;;4.05;2.13;;;4.10;89.70;;;;;;5032743;28;20112;-65
2022/11/25 05:18:34;;;;;;;5.20;2.10;;;4.20;90.00;;;;;;5031426;28;20122;-65
2022/11/25 05:21:19;;;;;;;5.28;2.10;;;4.20;89.70;;;;;;5031863;28;20162;-65
2022/11/25 05:23:51;;;;;;;5.32;1.60;;;4.20;89.90;;;;;;5029512;28;20049;-65
2022/11/25 05:26:24;;;;;;;6.22;1.90;;;4.20;90.10;;;;;;5030329;28;20140;-68
2022/11/25 05:28:59;;;;;;;6.47;1.77;;;4.20;89.80;;;;;;5027859;28;20052;-68
2022/11/25 05:31:30;;;;;;;5.68;2.10;;;4.20;89.60;;;;;;5045206;28;20045;-68
2022/11/25 05:34:00;;;;;;;4.07;2.15;;;4.20;89.90;;;;;;5047416;28;20055;-68
2022/11/25 05:36:44;;;;;;;6.07;2.33;;;4.20;89.40;;;;;;5031201;28;20049;-70
2022/11/25 05:39:17;;;;;;;4.63;2.03;;;4.20;89.60;;;;;;5021197;28;20080;-71
2022/11/25 05:42:07;;;;;;;5.10;1.92;;;4.20;89.90;;;;;;5049980;28;20146;-66
2022/11/25 05:44:34;;;;;;;4.70;1.77;;;4.20;89.90;;;;;;5030286;28;20514;-67
2022/11/25 05:47:04;;;;;;;4.07;2.05;;;4.20;89.60;;;;;;5028027;28;20560;-63
2022/11/25 05:49:36;;;;;;;4.10;1.73;;;4.30;89.40;;;;;;5049634;28;20052;-64
2022/11/25 05:52:13;;;;;;;4.22;1.92;;;4.20;89.50;;;;;;5026275;28;20514;-64
2022/11/25 05:54:48;;;;;;;5.40;2.58;;;4.20;89.40;;;;;;5031182;28;20065;-64
2022/11/25 05:57:18;;;;;;;5.63;2.63;;;4.30;89.80;;;;;;5033560;28;20387;-64
2022/11/25 05:59:51;;;;;;;5.88;2.60;;;4.20;89.70;;;;;;5034157;28;20143;-64
2022/11/25 06:02:27;;;;;;;5.53;2.58;;;4.30;90.10;;;;;;5031902;28;20126;-64
2022/11/25 06:04:55;;;;;;;5.57;2.63;;;4.20;90.10;;;;;;5043259;28;20087;-64
2022/11/25 06:07:23;;;;;;;5.80;2.38;;;4.30;90.10;;;;;;5044066;28;20067;-64
2022/11/25 06:09:50;;;;;;;6.28;2.55;;;4.30;90.10;;;;;;5049367;28;20061;-64
2022/11/25 06:12:26;;;;;;;4.82;2.33;;;4.30;90.30;;;;;;5031933;28;20095;-64
2022/11/25 06:14:58;;;;;;;6.03;2.55;;;4.20;90.00;;;;;;5032720;28;20052;-64
2022/11/25 06:17:31;;;;;;;5.15;2.40;;;4.30;89.70;;;;;;5041553;28;20533;-64
2022/11/25 06:20:09;;;;;;;4.65;2.00;;;4.30;89.90;;;;;;5032303;28;20077;-63
2022/11/25 06:22:36;;;;;;;4.47;2.65;;;4.40;89.90;;;;;;5046803;28;20147;-64
2022/11/25 06:25:03;;;;;;;6.15;2.60;;;4.30;89.70;;;;;;5048037;28;20052;-64
2022/11/25 06:27:42;;;;;;;5.82;2.63;;;4.30;90.00;;;;;;5032694;28;20056;-64
2022/11/25 06:30:13;;;;;;;4.88;2.28;;;4.30;90.10;;;;;;5045638;28;20047;-63
2022/11/25 06:32:44;;;;;;;5.00;2.10;;;4.40;90.50;;;;;;5045587;28;20053;-64
2022/11/25 06:35:33;;;;;;;5.28;2.28;;;4.40;89.90;;;;;;5033159;28;20045;-64
2022/11/25 06:38:02;;;;;;;6.07;2.20;;;4.40;89.80;;;;;;5028865;28;20103;-64
2022/11/25 06:40:29;;;;;;;5.00;2.22;;;4.40;89.80;;;;;;5048025;28;20083;-64
2022/11/25 06:42:59;;;;;;;6.32;2.33;;;4.40;90.00;;;;;;5051479;28;20601;-65
2022/11/25 06:45:28;;;;;;;5.77;2.33;;;4.40;90.30;;;;;;5046506;28;20056;-63
2022/11/25 06:48:01;;;;;;;4.40;1.67;;;4.40;90.30;;;;;;5049249;28;20491;-63
2022/11/25 06:50:31;;;;;;;3.65;1.95;;;4.50;90.40;;;;;;5050800;28;20076;-64
2022/11/25 06:53:01;;;;;;;5.72;2.40;;;4.50;90.30;;;;;;5048326;28;20057;-63
2022/11/25 06:55:31;;;;;;;5.13;2.03;;;4.50;89.80;;;;;;5051417;28;21061;-63
2022/11/25 06:57:59;;;;;;;7.72;2.53;;;4.50;89.70;;;;;;5049012;28;20053;-64
2022/11/25 07:00:26;;;;;;;5.68;2.03;;;4.40;89.90;;;;;;5047155;28;20035;-64
2022/11/25 07:02:53;;;;;;;5.10;2.13;;;4.50;89.90;;;;;;5043512;28;20041;-66
2022/11/25 07:05:21;;;;;;;4.65;2.20;;;4.50;90.20;;;;;;5042703;28;20131;-65
2022/11/25 07:07:51;;;;;;;4.50;2.10;;;4.50;90.00;;;;;;5043824;28;20056;-64
2022/11/25 07:10:25;;;;;;;3.97;1.98;;;4.50;89.80;;;;;;5044336;28;20072;-63
2022/11/25 07:12:52;;;;;;;5.90;2.28;;;4.60;90.40;;;;;;5046450;28;20041;-64
2022/11/25 07:15:20;;;;;;;5.72;2.25;;;4.60;90.00;;;;;;5046123;28;20044;-64
2022/11/25 07:17:47;;;;;;;5.40;2.67;;;4.60;90.00;;;;;;5046031;28;20053;-64
2022/11/25 07:20:17;;;;;;;4.22;2.20;;;4.60;90.30;;;;;;5044359;28;20076;-64
2022/11/25 07:22:46;;;;;;;4.45;2.25;;;4.60;90.70;;;;;;5045360;28;20503;-64
2022/11/25 07:25:13;;;;;;;7.10;2.88;;;4.70;90.30;;;;;;5044683;28;20059;-68
2022/11/25 07:27:40;;;;;;;5.47;2.40;;;4.60;90.20;;;;;;5041096;28;20056;-66
2022/11/25 07:30:13;;;;;;;6.88;2.75;;;4.70;90.70;;;;;;5046235;28;20044;-67
2022/11/25 07:32:40;;;;;;;7.97;3.00;;;4.70;90.80;;;;;;5044533;28;20135;-67
2022/11/25 07:35:07;;;;;;;4.75;2.25;;;4.80;90.70;;;;;;5048223;28;20110;-67
2022/11/25 07:37:36;;;;;;;3.60;2.13;;;4.80;90.30;;;;;;5046812;28;20497;-66
2022/11/25 07:40:15;;;;;;;7.53;2.42;;;4.80;90.30;;;;;;5031315;28;20172;-67
2022/11/25 07:42:42;;;;;;;6.15;2.88;;;4.80;90.60;;;;;;5048437;28;20052;-66
2022/11/25 07:45:12;;;;;;;5.72;2.72;;;4.80;90.80;;;;;;5029960;28;20077;-67
2022/11/25 07:47:48;;;;;;;6.15;2.97;;;4.90;90.80;;;;;;5023778;28;20043;-66
2022/11/25 07:50:15;;;;;;;5.00;2.27;;;4.90;90.80;;;;;;5046059;28;20048;-67
2022/11/25 07:52:43;;;;;;;5.82;2.47;;;5.00;90.60;;;;;;5044358;28;20049;-67
2022/11/25 07:55:15;;;;;;;5.85;3.40;;;5.10;90.60;;;;;;5049849;28;20053;-66
2022/11/25 07:57:47;;;;;;;4.43;2.35;;;5.00;90.60;;;;;;5047836;28;20049;-65
2022/11/25 08:00:15;;;;;;;8.05;3.17;;;5.00;90.60;;;;;;5045774;28;20055;-67
2022/11/25 08:02:44;;;;;;;5.30;2.60;;;5.10;90.60;;;;;;5043259;28;20143;-66
2022/11/25 08:05:16;;;;;;;6.80;2.90;;;5.10;90.60;;;;;;5045379;28;20049;-67
2022/11/25 08:07:43;;;;;;;7.00;2.95;;;5.10;90.60;;;;;;5042886;28;21104;-67
2022/11/25 08:10:14;;;;;;;5.80;2.75;;;5.20;90.60;;;;;;5047121;28;20484;-67
2022/11/25 08:12:41;;;;;;;6.63;2.80;;;5.20;90.60;;;;;;5044907;28;20041;-66
2022/11/25 08:15:09;;;;;;;6.38;3.08;;;5.20;90.60;;;;;;5028775;28;20124;-65
2022/11/25 08:17:38;;;;;;;7.20;3.13;;;5.20;90.60;;;;;;5048676;28;20143;-67
2022/11/25 08:20:16;;;;;;;6.40;3.13;;;5.20;90.60;;;;;;5049020;28;20499;-67
2022/11/25 08:22:46;;;;;;;6.22;3.22;;;5.20;90.80;;;;;;5042298;28;20049;-67
2022/11/25 08:25:14;;;;;;;7.15;3.53;;;5.30;90.80;;;;;;5043537;28;20037;-67
2022/11/25 08:27:43;;;;;;;6.47;3.83;;;5.20;90.80;;;;;;5047317;28;20488;-66
2022/11/25 08:30:12;;;;;;;7.30;3.35;;;5.30;90.90;;;;;;5045079;28;20573;-66
2022/11/25 08:32:51;;;;;;;7.15;2.97;;;5.20;90.70;;;;;;5041934;28;20143;-67
2022/11/25 08:35:20;;;;;;;5.57;2.90;;;5.20;90.40;;;;;;5046199;28;20103;-67
2022/11/25 08:37:50;;;;;;;5.90;3.13;;;5.30;90.90;;;;;;5029987;28;20499;-67
2022/11/25 08:40:17;;;;;;;7.10;3.65;;;5.30;91.00;;;;;;5046238;28;20037;-61
2022/11/25 08:42:48;;;;;;;5.45;2.95;;;5.30;91.20;;;;;;5028338;28;20052;-60
2022/11/25 08:45:19;;;;;;;6.72;3.28;;;5.30;90.40;;;;;;5043486;28;20045;-59
2022/11/25 08:47:49;;;;;;;5.63;2.70;;;5.30;91.10;;;;;;5042472;28;20049;-59
2022/11/25 08:50:22;;;;;;;6.18;3.03;;;5.40;90.90;;;;;;5044907;28;20075;-60
2022/11/25 08:52:58;;;;;;;5.38;2.88;;;5.40;91.20;;;;;;5045490;28;20077;-61
2022/11/25 08:55:27;;;;;;;7.28;3.13;;;5.40;90.90;;;;;;5044178;28;20965;-66
2022/11/25 08:57:56;;;;;;;6.35;3.00;;;5.40;91.30;;;;;;5043783;28;20045;-66
2022/11/25 09:00:28;;;;;;;6.72;3.03;;;5.40;91.00;;;;;;5044591;28;20040;-60
2022/11/25 09:02:55;;;;;;;6.60;3.28;;;5.50;91.00;;;;;;5045266;28;20130;-59
2022/11/25 09:05:25;;;;;;;6.53;3.28;;;5.40;90.80;;;;;;5047392;28;20037;-59
2022/11/25 09:07:52;;;;;;;6.65;3.47;;;5.50;91.20;;;;;;5046804;28;20131;-60
2022/11/25 09:10:21;;;;;;;6.50;3.72;;;5.50;91.30;;;;;;5029550;28;20547;-58
2022/11/25 09:12:49;;;;;;;9.38;4.63;;;5.60;91.30;;;;;;5033104;28;20569;-60
2022/11/25 09:15:20;;;;;;;9.50;4.93;;;5.60;91.30;;;;;;5048535;28;20064;-59
2022/11/25 09:17:51;;;;;;;10.35;4.43;;;5.70;91.30;;;;;;5030612;28;20049;-58
2022/11/25 09:20:18;;;;;;;8.65;5.15;;;5.70;91.10;;;;;;5048056;28;20045;-58
2022/11/25 09:22:50;;;;;;;10.88;5.07;;;5.70;91.30;;;;;;5048997;28;20045;-57
2022/11/25 09:25:20;;;;;;;7.88;4.60;;;5.70;91.30;;;;;;5048252;28;20415;-63
2022/11/25 09:27:47;;;;;;;10.65;5.30;;;5.80;91.20;;;;;;5049975;28;20053;-63
2022/11/25 09:30:17;;;;;;;9.95;4.97;;;5.80;91.30;;;;;;5047652;28;20052;-70
2022/11/25 09:32:49;;;;;;;9.95;4.97;;;5.80;91.30;;;;;;5048299;28;20045;-68
2022/11/25 09:35:16;;;;;;;10.13;4.65;;;5.90;91.30;;;;;;5051665;28;20065;-66
2022/11/25 09:37:49;;;;;;;9.00;4.55;;;5.80;91.20;;;;;;5051216;28;20561;-66
2022/11/25 09:40:20;;;;;;;8.80;4.80;;;5.80;91.20;;;;;;5048197;28;20068;-57
2022/11/25 09:48:55;;;;;;;8.02;4.25;;;5.90;91.20;;;;;;5027317;28;20100;-59
2022/11/25 09:51:24;;;;;;;8.80;3.88;;;5.90;91.10;;;;;;5049607;28;20045;-60
2022/11/25 09:53:54;;;;;;;10.30;4.15;;;5.90;91.10;;;;;;5049858;28;20083;-64
2022/11/25 09:56:31;;;;;;;7.80;3.70;;;5.90;91.20;;;;;;5048160;28;20126;-63
2022/11/25 09:59:02;;;;;;;8.82;4.55;;;5.90;91.20;;;;;;5048588;28;20068;-65
2022/11/25 10:01:38;;;;;;;9.07;4.93;;;5.90;91.20;;;;;;5049685;28;20053;-64
2022/11/25 10:04:13;;;;;;;9.63;4.55;;;6.00;91.20;;;;;;5046661;28;20045;-64
2022/11/25 10:06:50;;;;;;;7.07;4.20;;;6.00;91.20;;;;;;5048100;28;20040;-58
2022/11/25 10:09:24;;;;;;;7.05;4.72;;;6.00;91.10;;;;;;5031434;28;20049;-58
2022/11/25 10:11:53;;;;;;;8.20;4.90;;;6.00;91.20;;;;;;5047457;28;20466;-68
2022/11/25 10:14:30;;;;;;;8.23;5.43;;;6.00;91.40;;;;;;5049399;28;20041;-68
2022/11/25 10:17:05;;;;;;;8.50;5.28;;;5.90;91.30;;;;;;5048690;28;20045;-59
2022/11/25 10:19:45;;;;;;;11.18;6.75;;;6.00;91.40;;;;;;5048178;28;20045;-60
2022/11/25 10:22:22;;;;;;;10.82;6.20;;;6.00;91.40;;;;;;5046521;28;20185;-60
2022/11/25 10:24:51;;;;;;;9.32;6.35;;;6.10;91.30;;;;;;5027655;28;20471;-60
2022/11/25 10:27:26;;;;;;;8.73;6.00;;;6.10;91.30;;;;;;5046122;28;20053;-64
2022/11/25 10:30:01;;;;;;;9.02;5.68;;;6.10;91.20;;;;;;5046278;28;20060;-64
2022/11/25 10:32:41;;;;;;;8.20;5.28;;;6.10;91.10;;;;;;5045004;28;20049;-63
2022/11/25 10:35:22;;;;;;;8.95;5.43;;;6.20;91.20;;;;;;5049685;28;20041;-63
2022/11/25 10:38:00;;;;;;;8.25;5.13;;;6.20;91.20;;;;;;5042160;28;20053;-63
2022/11/25 10:40:28;;;;;;;8.93;5.13;;;6.20;91.10;;;;;;5042935;28;20511;-64
2022/11/25 10:42:55;;;;;;;8.90;4.70;;;6.20;91.10;;;;;;5047078;28;20045;-64
2022/11/25 10:45:28;;;;;;;9.55;5.30;;;6.20;91.10;;;;;;5042758;28;20032;-63
2022/11/25 10:48:21;;;;;;;8.70;4.80;;;6.20;91.20;;;;;;5047343;28;20098;-64
2022/11/25 10:51:04;;;;;;;7.18;4.57;;;6.30;91.30;;;;;;5047406;28;20064;-59
2022/11/25 10:53:33;;;;;;;8.43;4.10;;;6.30;91.30;;;;;;5043978;28;20048;-59
2022/11/25 10:56:10;;;;;;;6.57;3.47;;;6.40;91.10;;;;;;5047261;28;20049;-57
2022/11/25 10:58:38;;;;;;;7.03;3.55;;;6.40;91.10;;;;;;5046670;28;20066;-57
2022/11/25 11:01:22;;;;;;;8.82;4.10;;;6.50;91.10;;;;;;5048420;28;20098;-61
2022/11/25 11:04:03;;;;;;;6.43;3.22;;;6.50;91.10;;;;;;5048509;28;20080;-61
2022/11/25 11:06:37;;;;;;;5.05;2.97;;;6.60;91.10;;;;;;5048920;28;20549;-62
2022/11/25 11:09:04;;;;;;;7.30;3.03;;;6.60;91.00;;;;;;5048160;28;20144;-61
2022/11/25 11:11:31;;;;;;;5.50;2.75;;;6.60;91.10;;;;;;5046117;28;20059;-61
2022/11/25 11:14:13;;;;;;;5.25;2.80;;;6.60;91.10;;;;;;5045984;28;20041;-61
2022/11/25 11:16:44;;;;;;;6.18;2.47;;;6.60;91.00;;;;;;5048803;28;20053;-60
2022/11/25 11:19:24;;;;;;;5.65;2.33;;;6.60;91.00;;;;;;5048286;28;20049;-61
2022/11/25 11:21:53;;;;;;;5.35;2.70;;;6.60;91.00;;;;;;5047237;28;20072;-60
2022/11/25 11:24:30;;;;;;;5.35;2.33;;;6.60;91.00;;;;;;5047821;28;20044;-60
2022/11/25 11:27:07;;;;;;;5.78;2.20;;;6.60;91.10;;;;;;5046283;28;20122;-60
2022/11/25 11:29:40;;;;;;;6.15;2.50;;;6.60;91.10;;;;;;5045184;28;20048;-59
2022/11/25 11:32:21;;;;;;;5.10;2.60;;;6.60;91.00;;;;;;5047693;28;20098;-59
2022/11/25 11:35:03;;;;;;;4.38;2.22;;;6.60;91.00;;;;;;5046742;28;20069;-59
2022/11/25 11:37:42;;;;;;;3.95;1.92;;;6.60;91.00;;;;;;5047621;28;20053;-59
2022/11/25 11:40:31;;;;;;;5.85;2.50;;;6.60;91.10;;;;;;5046500;28;20049;-59
2022/11/25 11:43:19;;;;;;;4.80;2.20;;;6.60;91.10;;;;;;5050179;28;20060;-64
2022/11/25 11:46:00;;;;;;;5.70;2.78;;;6.60;91.20;;;;;;5048413;28;20051;-67
2022/11/25 11:48:41;;;;;;;7.90;3.60;;;6.60;91.20;;;;;;5044527;28;20048;-67
2022/11/25 11:51:20;;;;;;;8.30;3.70;;;6.70;91.20;;;;;;5046173;28;20177;-58
2022/11/25 11:54:00;;;;;;;7.55;4.03;;;6.60;91.30;;;;;;5048927;28;20090;-58
2022/11/25 11:56:40;;;;;;;6.22;2.80;;;6.60;91.30;;;;;;5048083;28;20646;-62
2022/11/25 11:59:39;;;;;;;8.52;3.30;;;6.60;91.30;;;;;;5047434;28;20491;-62
2022/11/25 12:02:19;;;;;;;5.55;2.92;;;6.60;91.40;;;;;;5045552;28;20064;-68
2022/11/25 12:05:02;;;;;;;6.55;3.03;;;6.70;91.40;;;;;;5041884;28;20052;-68
2022/11/25 12:07:36;;;;;;;5.57;2.88;;;6.60;91.40;;;;;;5045682;28;20487;-68
2022/11/25 12:10:22;;;;;;;6.70;2.53;;;6.60;91.20;;;;;;5046642;28;20127;-68
2022/11/25 12:13:08;;;;;;;5.00;2.70;;;6.60;91.50;;;;;;5043599;28;20115;-68
2022/11/25 12:15:47;;;;;;;4.53;2.33;;;6.60;91.40;;;;;;5044729;28;20099;-67
2022/11/25 12:18:32;;;;;;;4.80;2.67;;;6.70;91.40;;;;;;5044998;28;20053;-66
2022/11/25 12:21:04;;;;;;;4.80;2.80;;;6.70;91.50;;;;;;5046616;28;20070;-70
2022/11/25 12:23:44;;;;;;;5.00;2.13;;;6.70;91.40;;;;;;5044962;28;20091;-67
2022/11/25 12:26:22;;;;;;;5.43;2.45;;;6.70;91.40;;;;;;5044856;28;20063;-58
2022/11/25 12:28:59;;;;;;;7.03;2.58;;;6.70;91.50;;;;;;5044127;28;20049;-59
2022/11/25 12:31:39;;;;;;;6.15;2.65;;;6.70;91.50;;;;;;5046680;28;20052;-59
2022/11/25 12:34:11;;;;;;;5.85;2.72;;;6.70;91.40;;;;;;5045816;28;20287;-58
2022/11/25 12:36:41;;;;;;;5.20;2.42;;;6.70;91.60;;;;;;5045735;28;20049;-61
2022/11/25 12:39:20;;;;;;;4.50;2.25;;;6.70;91.60;;;;;;5047421;28;20053;-62
2022/11/25 12:41:55;;;;;;;5.43;2.78;;;6.70;91.60;;;;;;5049086;28;20045;-60
2022/11/25 12:44:32;;;;;;;6.20;2.90;;;6.70;91.50;;;;;;5049848;28;20131;-61
2022/11/25 12:47:01;;;;;;;5.53;2.58;;;6.70;91.60;;;;;;5046939;28;20131;-67
2022/11/25 12:49:36;;;;;;;7.70;3.63;;;6.70;91.70;;;;;;5051695;28;20099;-67
2022/11/25 12:52:39;;;;;;;6.60;3.10;;;6.70;91.60;;;;;;5049752;28;20059;-66
2022/11/25 12:55:16;;;;;;;8.13;4.22;;;6.80;91.40;;;;;;5052012;28;20041;-67
2022/11/25 12:58:18;;;;;;;8.50;4.03;;;6.80;91.70;;;;;;5049389;28;20110;-66
2022/11/25 13:01:22;;;;;;;8.85;4.22;;;6.70;91.60;;;;;;5052290;28;20098;-67
2022/11/25 13:04:27;;;;;;;7.88;3.90;;;6.70;91.70;;;;;;5047339;28;20167;-67
2022/11/25 13:07:19;;;;;;;7.65;3.50;;;6.80;91.60;;;;;;5016952;28;20103;-67
2022/11/25 13:10:23;;;;;;;6.57;3.67;;;6.80;91.60;;;;;;5048510;28;20068;-67
2022/11/25 13:13:05;;;;;;;7.97;3.60;;;6.80;91.60;;;;;;5047851;28;20480;-66
2022/11/25 13:15:46;;;;;;;9.23;3.57;;;6.90;91.60;;;;;;5042907;28;20053;-65
2022/11/25 13:18:17;;;;;;;5.03;2.92;;;6.90;91.60;;;;;;5046702;28;20479;-66
2022/11/25 13:20:49;;;;;;;5.78;3.08;;;6.90;91.50;;;;;;5042515;28;20077;-68
2022/11/25 13:23:41;;;;;;;7.35;3.60;;;7.00;91.50;;;;;;5048479;28;20049;-68
2022/11/25 13:26:49;;;;;;;7.47;3.22;;;6.90;91.50;;;;;;5048178;28;20045;-59
2022/11/25 13:30:02;;;;;;;5.88;2.92;;;6.90;91.60;;;;;;5047027;28;20491;-59
2022/11/25 13:32:40;;;;;;;9.30;3.03;;;6.90;91.60;;;;;;5028175;28;20110;-59
2022/11/25 13:35:35;;;;;;;5.70;3.17;;;7.00;91.60;;;;;;5049300;28;20044;-58
2022/11/25 13:38:22;;;;;;;6.05;2.70;;;7.00;91.50;;;;;;5048649;28;20132;-59
2022/11/25 13:40:56;;;;;;;6.63;3.00;;;7.00;91.50;;;;;;5044551;28;20052;-59
2022/11/25 13:43:27;;;;;;;6.53;2.90;;;7.00;91.50;;;;;;5046039;28;20483;-59